Time;durP1;ratioP1;P1;durP2;ratioP2;P2;SDS_P1;SDS_P2;PMS_P1;PMS_P2;Temp;Humidity;BMP_temperature;BMP_pressure;BME280_temperature;BME280_humidity;BME280_pressure;Samples;Min_cycle;Max_cycle;Signal;HPM_P1;HPM_P2
2021/11/21 00:02:03;;;;;;;16.13;14.43;;;;;;;;;;4981989;28;24435;-65
2021/11/21 00:04:28;;;;;;;16.97;14.13;;;;;;;;;;4984166;28;24440;-65
2021/11/21 00:06:53;;;;;;;16.50;14.70;;;;;;;;;;4986260;28;24876;-65
2021/11/21 00:09:19;;;;;;;15.90;14.30;;;;;;;;;;4984640;28;24760;-65
2021/11/21 00:11:44;;;;;;;15.37;13.77;;;;;;;;;;4979748;28;24458;-64
2021/11/21 00:14:09;;;;;;;14.77;13.18;;;;;;;;;;4979203;28;24495;-64
2021/11/21 00:16:35;;;;;;;15.87;13.80;;;;;;;;;;4986423;28;24892;-64
2021/11/21 00:19:00;;;;;;;14.80;13.30;;;;;;;;;;4982315;28;24522;-64
2021/11/21 00:21:25;;;;;;;14.87;13.37;;;;;;;;;;4986781;28;24429;-64
2021/11/21 00:23:50;;;;;;;14.27;12.77;;;;;;;;;;4994154;28;25421;-64
2021/11/21 00:26:16;;;;;;;16.37;14.50;;;;;;;;;;4982171;28;24436;-64
2021/11/21 00:28:41;;;;;;;16.17;13.90;;;;;;;;;;4979493;28;24960;-65
2021/11/21 00:31:06;;;;;;;15.73;14.03;;;;;;;;;;4982776;28;24774;-64
2021/11/21 00:33:32;;;;;;;16.48;13.90;;;;;;;;;;4983014;28;24483;-64
2021/11/21 00:35:58;;;;;;;16.13;14.43;;;;;;;;;;4985359;28;24405;-65
2021/11/21 00:38:23;;;;;;;15.57;13.97;;;;;;;;;;4980113;28;24436;-64
2021/11/21 00:40:48;;;;;;;16.13;14.43;;;;;;;;;;4978920;28;24434;-65
2021/11/21 00:43:13;;;;;;;17.07;14.63;;;;;;;;;;4983637;28;25149;-65
2021/11/21 00:45:38;;;;;;;16.93;14.20;;;;;;;;;;5001436;28;24447;-65
2021/11/21 00:48:04;;;;;;;16.47;14.67;;;;;;;;;;4984687;28;24425;-66
2021/11/21 00:50:31;;;;;;;17.63;14.97;;;;;;;;;;4987421;28;25000;-66
2021/11/21 00:53:02;;;;;;;17.70;14.93;;;;;;;;;;4980941;28;24449;-65
2021/11/21 00:55:34;;;;;;;16.40;14.00;;;;;;;;;;4981323;28;24437;-66
2021/11/21 00:57:59;;;;;;;16.63;14.60;;;;;;;;;;4982340;28;24503;-66
2021/11/21 01:00:24;;;;;;;16.20;14.30;;;;;;;;;;4981870;28;24416;-66
2021/11/21 01:02:49;;;;;;;15.75;13.90;;;;;;;;;;4984160;28;25020;-66
2021/11/21 01:05:14;;;;;;;19.77;16.07;;;;;;;;;;4985331;28;24479;-65
2021/11/21 01:07:40;;;;;;;21.67;16.83;;;;;;;;;;4978696;28;24516;-65
2021/11/21 01:10:06;;;;;;;17.43;15.53;;;;;;;;;;4978597;28;24827;-66
2021/11/21 01:12:31;;;;;;;17.57;14.90;;;;;;;;;;4983728;28;24590;-65
2021/11/21 01:14:57;;;;;;;17.77;15.60;;;;;;;;;;4984378;28;24498;-65
2021/11/21 01:17:22;;;;;;;17.80;15.60;;;;;;;;;;4982745;28;24780;-65
2021/11/21 01:19:47;;;;;;;17.03;15.20;;;;;;;;;;4981300;28;24492;-64
2021/11/21 01:22:12;;;;;;;19.00;15.20;;;;;;;;;;4980017;28;24962;-66
2021/11/21 01:24:37;;;;;;;16.70;14.80;;;;;;;;;;4983051;28;24601;-66
2021/11/21 01:27:03;;;;;;;17.83;15.90;;;;;;;;;;4984909;28;24412;-66
2021/11/21 01:29:29;;;;;;;16.15;14.40;;;;;;;;;;4979345;28;24429;-66
2021/11/21 01:31:54;;;;;;;16.33;14.30;;;;;;;;;;4980369;28;24448;-66
2021/11/21 01:34:19;;;;;;;16.07;14.37;;;;;;;;;;4978446;28;24537;-66
2021/11/21 01:36:44;;;;;;;16.40;14.70;;;;;;;;;;4984274;28;25003;-67
2021/11/21 01:39:09;;;;;;;17.67;15.30;;;;;;;;;;4983100;28;24459;-66
2021/11/21 01:41:36;;;;;;;15.90;14.03;;;;;;;;;;4979736;28;24470;-66
2021/11/21 01:44:01;;;;;;;16.35;13.85;;;;;;;;;;4979742;28;24424;-66
2021/11/21 01:46:30;;;;;;;17.23;14.40;;;;;;;;;;4983632;28;24432;-66
2021/11/21 01:48:55;;;;;;;15.13;13.40;;;;;;;;;;4983663;28;24425;-66
2021/11/21 01:51:20;;;;;;;17.27;14.65;;;;;;;;;;4979903;28;24417;-66
2021/11/21 01:53:45;;;;;;;15.27;13.50;;;;;;;;;;4980684;28;25057;-65
2021/11/21 01:56:11;;;;;;;14.60;13.10;;;;;;;;;;4983728;28;24424;-64
2021/11/21 01:58:38;;;;;;;14.40;12.90;;;;;;;;;;4987251;28;24421;-64
2021/11/21 02:01:03;;;;;;;14.33;12.83;;;;;;;;;;4976181;28;24524;-64
2021/11/21 02:03:28;;;;;;;15.23;13.63;;;;;;;;;;4987414;28;24417;-64
2021/11/21 02:05:54;;;;;;;15.33;13.73;;;;;;;;;;4980961;28;24804;-65
2021/11/21 02:08:19;;;;;;;16.30;13.47;;;;;;;;;;4985992;28;24413;-64
2021/11/21 02:10:46;;;;;;;14.15;12.65;;;;;;;;;;4982286;28;25068;-64
2021/11/21 02:13:11;;;;;;;14.55;13.00;;;;;;;;;;4984657;28;24413;-64
2021/11/21 02:15:37;;;;;;;14.32;12.75;;;;;;;;;;4981778;28;24575;-64
2021/11/21 02:18:03;;;;;;;13.43;12.03;;;;;;;;;;4977816;28;24440;-64
2021/11/21 02:20:34;;;;;;;13.48;12.07;;;;;;;;;;4979229;28;24552;-64
2021/11/21 02:23:03;;;;;;;14.10;12.60;;;;;;;;;;4982706;28;24669;-64
2021/11/21 02:25:28;;;;;;;15.18;12.90;;;;;;;;;;4982740;28;24955;-64
2021/11/21 02:27:53;;;;;;;14.33;12.83;;;;;;;;;;4981347;28;24439;-64
2021/11/21 02:30:18;;;;;;;13.33;11.93;;;;;;;;;;4980558;28;24780;-64
2021/11/21 02:32:45;;;;;;;12.60;11.30;;;;;;;;;;4983202;28;25068;-64
2021/11/21 02:35:10;;;;;;;13.60;12.20;;;;;;;;;;4984256;28;24752;-64
2021/11/21 02:37:37;;;;;;;14.07;11.97;;;;;;;;;;4979257;28;24966;-64
2021/11/21 02:40:02;;;;;;;13.43;11.80;;;;;;;;;;4977373;28;24990;-64
2021/11/21 02:42:33;;;;;;;14.60;12.37;;;;;;;;;;4979030;28;24448;-64
2021/11/21 02:44:59;;;;;;;13.05;11.65;;;;;;;;;;4986977;28;24420;-64
2021/11/21 02:47:25;;;;;;;13.87;12.37;;;;;;;;;;4984973;28;24478;-65
2021/11/21 02:49:52;;;;;;;13.70;12.30;;;;;;;;;;4981016;28;24462;-64
2021/11/21 02:52:18;;;;;;;14.30;12.50;;;;;;;;;;4976740;28;25166;-64
2021/11/21 02:54:52;;;;;;;13.38;11.98;;;;;;;;;;4977787;28;24452;-64
2021/11/21 02:57:18;;;;;;;14.63;13.13;;;;;;;;;;4982209;28;24443;-64
2021/11/21 02:59:43;;;;;;;13.70;12.27;;;;;;;;;;4980843;28;24424;-64
2021/11/21 03:02:08;;;;;;;12.73;11.43;;;;;;;;;;4976836;28;24476;-64
2021/11/21 03:04:33;;;;;;;14.30;12.77;;;;;;;;;;4978824;28;24509;-64
2021/11/21 03:06:58;;;;;;;13.65;12.10;;;;;;;;;;4984895;28;24424;-64
2021/11/21 03:09:24;;;;;;;13.80;12.33;;;;;;;;;;4980828;28;24875;-65
2021/11/21 03:11:53;;;;;;;12.20;10.90;;;;;;;;;;4979106;28;25161;-65
2021/11/21 03:14:19;;;;;;;14.07;12.05;;;;;;;;;;4977354;28;24505;-64
2021/11/21 03:16:48;;;;;;;14.65;13.15;;;;;;;;;;4985022;28;25030;-64
2021/11/21 03:19:14;;;;;;;13.10;11.70;;;;;;;;;;4982675;28;24862;-64
2021/11/21 03:21:39;;;;;;;14.23;12.35;;;;;;;;;;4980879;28;24974;-64
2021/11/21 03:24:04;;;;;;;12.37;11.07;;;;;;;;;;4980440;28;24491;-64
2021/11/21 03:26:29;;;;;;;13.55;12.00;;;;;;;;;;4978218;28;24412;-64
2021/11/21 03:28:55;;;;;;;13.63;11.50;;;;;;;;;;4980482;28;24471;-64
2021/11/21 03:31:20;;;;;;;12.38;11.07;;;;;;;;;;4982555;28;24583;-64
2021/11/21 03:33:45;;;;;;;12.13;10.93;;;;;;;;;;4981228;28;24459;-64
2021/11/21 03:36:10;;;;;;;12.85;10.93;;;;;;;;;;4981674;28;24475;-64
2021/11/21 03:38:35;;;;;;;12.70;11.40;;;;;;;;;;4979639;28;24436;-64
2021/11/21 03:41:00;;;;;;;12.23;10.93;;;;;;;;;;4981238;28;24436;-64
2021/11/21 03:43:26;;;;;;;12.93;11.53;;;;;;;;;;4984690;28;24428;-64
2021/11/21 03:45:51;;;;;;;12.57;11.30;;;;;;;;;;4985603;28;24413;-64
2021/11/21 03:48:16;;;;;;;13.33;11.90;;;;;;;;;;4985413;28;24429;-63
2021/11/21 03:50:41;;;;;;;13.73;12.32;;;;;;;;;;4986497;28;24479;-63
2021/11/21 03:53:06;;;;;;;13.07;11.67;;;;;;;;;;4982935;28;24424;-63
2021/11/21 03:55:31;;;;;;;13.80;12.40;;;;;;;;;;4983569;28;24432;-64
2021/11/21 03:57:58;;;;;;;13.30;11.93;;;;;;;;;;4985592;28;24433;-64
2021/11/21 04:00:25;;;;;;;13.07;11.70;;;;;;;;;;4988670;28;24444;-64
2021/11/21 04:02:50;;;;;;;13.23;11.82;;;;;;;;;;4983800;28;24966;-64
2021/11/21 04:05:16;;;;;;;13.10;11.70;;;;;;;;;;4983712;28;24448;-64
2021/11/21 04:07:41;;;;;;;13.27;11.90;;;;;;;;;;4985665;28;24462;-63
2021/11/21 04:10:07;;;;;;;12.93;11.63;;;;;;;;;;4985412;28;24577;-67
2021/11/21 04:12:32;;;;;;;13.50;12.05;;;;;;;;;;4982120;28;24429;-64
2021/11/21 04:14:58;;;;;;;13.30;12.00;;;;;;;;;;4982739;28;24413;-64
2021/11/21 04:17:23;;;;;;;13.07;11.77;;;;;;;;;;4979629;28;24457;-64
2021/11/21 04:19:48;;;;;;;12.70;11.40;;;;;;;;;;4987301;28;24891;-64
2021/11/21 04:22:13;;;;;;;13.33;12.00;;;;;;;;;;4984594;28;24455;-64
2021/11/21 04:24:39;;;;;;;12.60;11.30;;;;;;;;;;4984109;28;24491;-64
2021/11/21 04:27:04;;;;;;;13.00;11.30;;;;;;;;;;4983249;28;24448;-63
2021/11/21 04:29:30;;;;;;;12.67;11.37;;;;;;;;;;4981424;28;24981;-63
2021/11/21 04:31:56;;;;;;;12.50;11.30;;;;;;;;;;4986522;28;24416;-63
2021/11/21 04:34:21;;;;;;;12.03;10.73;;;;;;;;;;4982852;28;24965;-64
2021/11/21 04:36:46;;;;;;;11.80;10.60;;;;;;;;;;4985358;28;24486;-64
2021/11/21 04:39:11;;;;;;;12.00;10.70;;;;;;;;;;4984781;28;24436;-63
2021/11/21 04:41:36;;;;;;;12.40;11.13;;;;;;;;;;4978097;28;24532;-63
2021/11/21 04:44:04;;;;;;;12.27;11.07;;;;;;;;;;4986009;28;24762;-66
2021/11/21 04:46:30;;;;;;;12.82;11.52;;;;;;;;;;4987336;28;24424;-64
2021/11/21 04:48:55;;;;;;;12.60;11.30;;;;;;;;;;4984167;28;24467;-64
2021/11/21 04:51:20;;;;;;;13.07;11.33;;;;;;;;;;4983741;28;24453;-63
2021/11/21 04:53:46;;;;;;;13.93;12.53;;;;;;;;;;4990276;28;24484;-63
2021/11/21 04:56:11;;;;;;;14.90;13.30;;;;;;;;;;4980831;28;24950;-64
2021/11/21 04:58:36;;;;;;;15.40;13.67;;;;;;;;;;4985029;28;24958;-64
2021/11/21 05:01:02;;;;;;;16.80;14.50;;;;;;;;;;4984674;28;24571;-64
2021/11/21 05:03:27;;;;;;;16.00;14.10;;;;;;;;;;4985022;28;24408;-64
2021/11/21 05:05:52;;;;;;;17.60;15.30;;;;;;;;;;4982136;28;24945;-64
2021/11/21 05:08:17;;;;;;;16.10;14.38;;;;;;;;;;4979326;28;24416;-64
2021/11/21 05:10:42;;;;;;;16.10;13.75;;;;;;;;;;4982050;28;24417;-64
2021/11/21 05:13:07;;;;;;;16.50;14.80;;;;;;;;;;4983798;28;24491;-63
2021/11/21 05:15:33;;;;;;;16.23;14.30;;;;;;;;;;4984962;28;24511;-64
2021/11/21 05:17:58;;;;;;;17.63;15.40;;;;;;;;;;4982195;28;25067;-63
2021/11/21 05:20:23;;;;;;;17.00;15.07;;;;;;;;;;4978838;28;24429;-63
2021/11/21 05:22:48;;;;;;;17.20;15.40;;;;;;;;;;4982656;28;24421;-64
2021/11/21 05:25:14;;;;;;;17.43;15.43;;;;;;;;;;4983880;28;24830;-64
2021/11/21 05:27:43;;;;;;;16.75;14.85;;;;;;;;;;4982243;28;24458;-63
2021/11/21 05:30:08;;;;;;;17.58;15.32;;;;;;;;;;4982207;28;24537;-63
2021/11/21 05:32:34;;;;;;;16.13;14.40;;;;;;;;;;4978918;28;24555;-66
2021/11/21 05:34:59;;;;;;;16.17;14.47;;;;;;;;;;4983411;28;24997;-66
2021/11/21 05:37:24;;;;;;;17.42;14.93;;;;;;;;;;4980947;28;24780;-63
2021/11/21 05:39:49;;;;;;;16.13;14.43;;;;;;;;;;4984535;28;24589;-64
2021/11/21 05:42:14;;;;;;;19.70;16.70;;;;;;;;;;4979260;28;24986;-64
2021/11/21 05:44:39;;;;;;;17.23;14.23;;;;;;;;;;4978174;28;24568;-64
2021/11/21 05:47:05;;;;;;;17.23;14.73;;;;;;;;;;4982507;28;24428;-64
2021/11/21 05:49:30;;;;;;;16.93;13.83;;;;;;;;;;4985773;28;24409;-64
2021/11/21 05:51:55;;;;;;;15.70;13.83;;;;;;;;;;4983154;28;24420;-64
2021/11/21 05:54:20;;;;;;;17.07;14.50;;;;;;;;;;4981682;28;24535;-64
2021/11/21 05:56:45;;;;;;;16.17;14.20;;;;;;;;;;4972467;28;24420;-64
2021/11/21 05:59:11;;;;;;;16.42;14.50;;;;;;;;;;4981395;28;24418;-65
2021/11/21 06:01:36;;;;;;;15.50;13.47;;;;;;;;;;4981194;28;24412;-64
2021/11/21 06:04:01;;;;;;;16.10;13.85;;;;;;;;;;4983383;28;24436;-64
2021/11/21 06:06:26;;;;;;;17.30;14.20;;;;;;;;;;4980551;28;24512;-64
2021/11/21 06:08:51;;;;;;;17.40;15.13;;;;;;;;;;4979021;28;24527;-65
2021/11/21 06:11:17;;;;;;;15.68;14.07;;;;;;;;;;4978758;28;24420;-64
2021/11/21 06:13:42;;;;;;;15.73;13.83;;;;;;;;;;4981186;28;24428;-65
2021/11/21 06:16:07;;;;;;;15.45;13.85;;;;;;;;;;4984058;28;24409;-65
2021/11/21 06:18:33;;;;;;;15.77;13.90;;;;;;;;;;4978598;28;25049;-64
2021/11/21 06:20:58;;;;;;;16.67;14.87;;;;;;;;;;4977751;28;24439;-65
2021/11/21 06:23:23;;;;;;;17.17;14.67;;;;;;;;;;4982716;28;24931;-64
2021/11/21 06:25:48;;;;;;;18.77;15.27;;;;;;;;;;4982675;28;24783;-64
2021/11/21 06:28:14;;;;;;;17.15;14.93;;;;;;;;;;4979946;28;25016;-64
2021/11/21 06:30:39;;;;;;;16.30;14.60;;;;;;;;;;4976849;28;24479;-64
2021/11/21 06:33:05;;;;;;;15.77;13.43;;;;;;;;;;4984091;28;25007;-64
2021/11/21 06:35:31;;;;;;;16.50;14.30;;;;;;;;;;4985871;28;24404;-63
2021/11/21 06:37:56;;;;;;;16.42;14.05;;;;;;;;;;4991783;28;24982;-63
2021/11/21 06:40:21;;;;;;;15.63;14.03;;;;;;;;;;4980719;28;24961;-64
2021/11/21 06:42:46;;;;;;;16.37;14.20;;;;;;;;;;4982828;28;24463;-63
2021/11/21 06:45:12;;;;;;;15.60;13.93;;;;;;;;;;4984943;28;24517;-63
2021/11/21 06:47:38;;;;;;;15.95;14.15;;;;;;;;;;4981108;28;24425;-65
2021/11/21 06:50:04;;;;;;;15.65;13.95;;;;;;;;;;4980507;28;24425;-63
2021/11/21 06:52:31;;;;;;;15.82;13.85;;;;;;;;;;4973518;28;24409;-63
2021/11/21 06:54:56;;;;;;;15.70;14.00;;;;;;;;;;4981613;28;24476;-64
2021/11/21 06:57:21;;;;;;;14.67;13.07;;;;;;;;;;4980435;28;24475;-64
2021/11/21 06:59:47;;;;;;;14.87;13.37;;;;;;;;;;4989475;28;25509;-64
2021/11/21 07:02:12;;;;;;;15.60;13.60;;;;;;;;;;4982805;28;24512;-64
2021/11/21 07:04:37;;;;;;;15.40;13.80;;;;;;;;;;4976646;28;24776;-64
2021/11/21 07:07:06;;;;;;;14.70;13.20;;;;;;;;;;4983227;28;24495;-63
2021/11/21 07:09:31;;;;;;;14.90;13.30;;;;;;;;;;4991453;28;24902;-64
2021/11/21 07:11:56;;;;;;;15.67;13.50;;;;;;;;;;4989930;28;24508;-66
2021/11/21 07:14:21;;;;;;;15.10;13.60;;;;;;;;;;4984718;28;24424;-64
2021/11/21 07:16:48;;;;;;;15.70;13.60;;;;;;;;;;4985184;28;24998;-63
2021/11/21 07:19:14;;;;;;;13.95;12.55;;;;;;;;;;4993128;28;25216;-63
2021/11/21 07:21:39;;;;;;;16.30;14.07;;;;;;;;;;4986898;28;24420;-64
2021/11/21 07:24:05;;;;;;;15.93;14.23;;;;;;;;;;4986306;28;24522;-64
2021/11/21 07:26:30;;;;;;;15.35;13.75;;;;;;;;;;4988589;28;24428;-65
2021/11/21 07:28:55;;;;;;;14.90;13.10;;;;;;;;;;4982307;28;24452;-66
2021/11/21 07:31:21;;;;;;;15.85;14.15;;;;;;;;;;4988846;28;24397;-64
2021/11/21 07:33:46;;;;;;;16.33;14.60;;;;;;;;;;4988136;28;24515;-65
2021/11/21 07:36:11;;;;;;;16.60;14.80;;;;;;;;;;5002370;28;25202;-65
2021/11/21 07:38:39;;;;;;;15.37;13.77;;;;;;;;;;4994613;28;24413;-65
2021/11/21 07:41:04;;;;;;;15.90;14.20;;;;;;;;;;4980721;28;24939;-65
2021/11/21 07:43:30;;;;;;;17.23;14.63;;;;;;;;;;4984018;28;24408;-64
2021/11/21 07:45:56;;;;;;;15.95;14.20;;;;;;;;;;4984990;28;25257;-64
2021/11/21 07:48:21;;;;;;;15.23;13.47;;;;;;;;;;4986699;28;24463;-64
2021/11/21 07:50:46;;;;;;;15.52;13.93;;;;;;;;;;4983994;28;24407;-65
2021/11/21 07:53:12;;;;;;;16.17;14.48;;;;;;;;;;4977629;28;24804;-66
2021/11/21 07:55:37;;;;;;;16.20;14.60;;;;;;;;;;4985356;28;24986;-64
2021/11/21 07:58:02;;;;;;;17.03;14.43;;;;;;;;;;4985555;28;24417;-64
2021/11/21 08:00:27;;;;;;;16.43;14.70;;;;;;;;;;4986172;28;24413;-65
2021/11/21 08:02:52;;;;;;;17.00;15.20;;;;;;;;;;4991255;28;24417;-65
2021/11/21 08:05:18;;;;;;;16.45;14.73;;;;;;;;;;4979809;28;24487;-65
2021/11/21 08:07:44;;;;;;;17.50;14.90;;;;;;;;;;4985890;28;24496;-66
2021/11/21 08:10:10;;;;;;;16.40;14.70;;;;;;;;;;4989539;28;24768;-64
2021/11/21 08:12:35;;;;;;;17.83;15.90;;;;;;;;;;4984364;28;25022;-65
2021/11/21 08:15:00;;;;;;;16.77;14.97;;;;;;;;;;4988110;28;24836;-64
2021/11/21 08:17:25;;;;;;;16.70;14.90;;;;;;;;;;4982684;28;24409;-65
2021/11/21 08:19:51;;;;;;;17.00;14.90;;;;;;;;;;4983899;28;24474;-64
2021/11/21 08:22:16;;;;;;;18.70;16.30;;;;;;;;;;4990773;28;24775;-65
2021/11/21 08:24:42;;;;;;;19.57;16.83;;;;;;;;;;4984160;28;24476;-65
2021/11/21 08:27:07;;;;;;;17.20;15.20;;;;;;;;;;4986452;28;24417;-65
2021/11/21 08:29:33;;;;;;;17.13;15.20;;;;;;;;;;4983912;28;24658;-66
2021/11/21 08:31:59;;;;;;;17.60;14.70;;;;;;;;;;4987141;28;24410;-66
2021/11/21 08:34:24;;;;;;;18.40;15.20;;;;;;;;;;4988249;28;24440;-65
2021/11/21 08:36:50;;;;;;;18.00;15.80;;;;;;;;;;4983741;28;24602;-66
2021/11/21 08:39:16;;;;;;;17.80;15.20;;;;;;;;;;4980720;28;24420;-66
2021/11/21 08:41:42;;;;;;;17.85;15.95;;;;;;;;;;4982066;28;24428;-65
2021/11/21 08:44:07;;;;;;;17.98;15.35;;;;;;;;;;4982800;28;24795;-66
2021/11/21 08:46:32;;;;;;;16.30;14.60;;;;;;;;;;4985920;28;24447;-66
2021/11/21 08:48:57;;;;;;;19.95;16.75;;;;;;;;;;4985964;28;24854;-66
2021/11/21 08:51:23;;;;;;;19.65;16.55;;;;;;;;;;4989077;28;25045;-67
2021/11/21 08:53:48;;;;;;;20.93;18.03;;;;;;;;;;4982905;28;24436;-67
2021/11/21 08:56:14;;;;;;;18.92;16.25;;;;;;;;;;4984750;28;24417;-67
2021/11/21 08:58:39;;;;;;;15.90;14.20;;;;;;;;;;4982526;28;25402;-65
2021/11/21 09:01:04;;;;;;;21.27;16.97;;;;;;;;;;4983759;28;24468;-64
2021/11/21 09:03:30;;;;;;;17.38;15.48;;;;;;;;;;4986351;28;24511;-65
2021/11/21 09:05:55;;;;;;;18.90;16.07;;;;;;;;;;4990531;28;24831;-65
2021/11/21 09:08:21;;;;;;;19.37;17.20;;;;;;;;;;4982769;28;24787;-66
2021/11/21 09:10:46;;;;;;;21.73;18.00;;;;;;;;;;4979447;28;24484;-64
2021/11/21 09:13:12;;;;;;;17.57;15.67;;;;;;;;;;4979439;28;24471;-65
2021/11/21 09:15:37;;;;;;;16.75;14.35;;;;;;;;;;4983289;28;25139;-66
2021/11/21 09:18:02;;;;;;;18.40;15.60;;;;;;;;;;4984564;28;24783;-66
2021/11/21 09:20:27;;;;;;;18.80;16.40;;;;;;;;;;4984854;28;24506;-66
2021/11/21 09:22:53;;;;;;;19.23;16.70;;;;;;;;;;4979484;28;24856;-65
2021/11/21 09:25:19;;;;;;;15.50;13.83;;;;;;;;;;4980373;28;24439;-66
2021/11/21 09:27:44;;;;;;;17.55;15.65;;;;;;;;;;4984947;28;24414;-66
2021/11/21 09:30:10;;;;;;;15.40;13.80;;;;;;;;;;4984031;28;24997;-66
2021/11/21 09:32:36;;;;;;;17.17;15.27;;;;;;;;;;4982957;28;24922;-66
2021/11/21 09:35:01;;;;;;;17.73;15.80;;;;;;;;;;4980962;28;24552;-66
2021/11/21 09:37:27;;;;;;;21.37;16.70;;;;;;;;;;4979104;28;24393;-65
2021/11/21 09:39:52;;;;;;;18.70;15.57;;;;;;;;;;4984516;28;24416;-65
2021/11/21 09:42:17;;;;;;;21.90;18.30;;;;;;;;;;4981966;28;25060;-65
2021/11/21 09:44:42;;;;;;;17.57;15.30;;;;;;;;;;4984637;28;24416;-67
2021/11/21 09:47:08;;;;;;;19.00;15.48;;;;;;;;;;4983711;28;24516;-66
2021/11/21 09:49:33;;;;;;;18.63;15.97;;;;;;;;;;4979217;28;24885;-66
2021/11/21 09:51:58;;;;;;;17.33;15.00;;;;;;;;;;4980392;28;24397;-66
2021/11/21 09:54:24;;;;;;;20.35;16.42;;;;;;;;;;4983035;28;24520;-66
2021/11/21 09:56:49;;;;;;;18.95;15.95;;;;;;;;;;4984158;28;24508;-65
2021/11/21 09:59:14;;;;;;;20.48;18.20;;;;;;;;;;4983835;28;24672;-66
2021/11/21 10:01:44;;;;;;;20.50;16.53;;;;;;;;;;4980469;28;24804;-66
2021/11/21 10:04:11;;;;;;;18.83;15.25;;;;;;;;;;4979093;28;24791;-66
2021/11/21 10:06:37;;;;;;;21.23;16.70;;;;;;;;;;4980483;28;24420;-65
2021/11/21 10:09:04;;;;;;;18.13;14.77;;;;;;;;;;4983523;28;24539;-66
2021/11/21 10:11:29;;;;;;;19.65;16.15;;;;;;;;;;4982391;28;24381;-66
2021/11/21 10:14:02;;;;;;;18.58;15.85;;;;;;;;;;4978164;28;24775;-66
2021/11/21 10:16:32;;;;;;;20.57;17.07;;;;;;;;;;4978544;28;24521;-66
2021/11/21 10:19:10;;;;;;;18.27;15.80;;;;;;;;;;4982220;28;24489;-66
2021/11/21 10:21:37;;;;;;;20.63;17.40;;;;;;;;;;4981940;28;24831;-64
2021/11/21 10:24:20;;;;;;;20.65;17.40;;;;;;;;;;4983780;28;24416;-65
2021/11/21 10:26:46;;;;;;;18.85;16.67;;;;;;;;;;4979689;28;24416;-65
2021/11/21 10:29:24;;;;;;;23.13;18.45;;;;;;;;;;4980143;28;24405;-65
2021/11/21 10:31:49;;;;;;;27.92;21.33;;;;;;;;;;4983959;28;24943;-65
2021/11/21 10:34:15;;;;;;;30.20;22.93;;;;;;;;;;4983830;28;24409;-65
2021/11/21 10:36:40;;;;;;;29.20;20.90;;;;;;;;;;4981420;28;24504;-65
2021/11/21 10:39:06;;;;;;;31.53;23.83;;;;;;;;;;4982757;28;24779;-65
2021/11/21 10:41:36;;;;;;;43.00;30.63;;;;;;;;;;4979594;28;24532;-64
2021/11/21 10:44:02;;;;;;;28.05;20.75;;;;;;;;;;4976942;28;24425;-65
2021/11/21 10:46:32;;;;;;;23.60;19.95;;;;;;;;;;4981583;28;24849;-65
2021/11/21 10:49:12;;;;;;;20.98;17.20;;;;;;;;;;4983297;28;24500;-64
2021/11/21 10:51:37;;;;;;;33.72;27.48;;;;;;;;;;4979466;28;24563;-64
2021/11/21 10:54:02;;;;;;;32.13;26.60;;;;;;;;;;4979326;28;24520;-64
2021/11/21 10:56:28;;;;;;;32.70;26.80;;;;;;;;;;4978542;28;24393;-65
2021/11/21 10:58:53;;;;;;;55.15;43.25;;;;;;;;;;4983488;28;24416;-65
2021/11/21 11:01:19;;;;;;;25.65;20.70;;;;;;;;;;4979679;28;24397;-65
2021/11/21 11:04:04;;;;;;;19.05;16.70;;;;;;;;;;4977708;28;24560;-65
2021/11/21 11:06:30;;;;;;;21.20;18.23;;;;;;;;;;4981789;28;24447;-64
2021/11/21 11:09:12;;;;;;;22.10;19.70;;;;;;;;;;4983643;28;24385;-65
2021/11/21 11:11:37;;;;;;;18.83;15.77;;;;;;;;;;4981936;28;24799;-65
2021/11/21 11:14:03;;;;;;;17.60;15.53;;;;;;;;;;4980688;28;24974;-65
2021/11/21 11:16:28;;;;;;;20.30;15.70;;;;;;;;;;4977578;28;24505;-65
2021/11/21 11:18:53;;;;;;;17.27;14.52;;;;;;;;;;4979820;28;24943;-65
2021/11/21 11:21:18;;;;;;;18.50;14.03;;;;;;;;;;4983286;28;24488;-65
2021/11/21 11:23:43;;;;;;;17.47;15.03;;;;;;;;;;4981778;28;25069;-65
2021/11/21 11:26:09;;;;;;;19.80;15.60;;;;;;;;;;4983314;28;24460;-65
2021/11/21 11:28:44;;;;;;;18.40;15.63;;;;;;;;;;4977735;28;24406;-65
2021/11/21 11:31:25;;;;;;;19.15;15.50;;;;;;;;;;4981279;28;24763;-65
2021/11/21 11:33:54;;;;;;;15.50;13.00;;;;;;;;;;4983594;28;24409;-65
2021/11/21 11:36:20;;;;;;;16.88;13.50;;;;;;;;;;4979402;28;24541;-66
2021/11/21 11:38:57;;;;;;;16.50;13.60;;;;;;;;;;4979533;28;24859;-65
2021/11/21 11:41:26;;;;;;;15.18;13.20;;;;;;;;;;4981288;28;24413;-65
2021/11/21 11:43:53;;;;;;;15.77;12.48;;;;;;;;;;4983680;28;24946;-65
2021/11/21 11:46:19;;;;;;;17.00;14.35;;;;;;;;;;4983000;28;25042;-65
2021/11/21 11:48:57;;;;;;;16.40;13.13;;;;;;;;;;4981257;28;24417;-65
2021/11/21 11:51:48;;;;;;;16.73;14.02;;;;;;;;;;4977777;28;24441;-66
2021/11/21 11:54:21;;;;;;;14.90;12.68;;;;;;;;;;4979745;28;24455;-64
2021/11/21 11:57:15;;;;;;;15.05;13.45;;;;;;;;;;4983811;28;24421;-64
2021/11/21 11:59:42;;;;;;;14.02;12.18;;;;;;;;;;4980017;28;24421;-66
2021/11/21 12:02:08;;;;;;;13.25;11.63;;;;;;;;;;4982573;28;24439;-64
2021/11/21 12:04:33;;;;;;;16.30;12.25;;;;;;;;;;4984589;28;25336;-64
2021/11/21 12:07:00;;;;;;;14.40;12.30;;;;;;;;;;4984365;28;24529;-66
2021/11/21 12:09:29;;;;;;;14.50;12.48;;;;;;;;;;4986336;28;24823;-64
2021/11/21 12:12:01;;;;;;;15.10;12.20;;;;;;;;;;4982916;28;24421;-64
2021/11/21 12:14:26;;;;;;;14.52;13.02;;;;;;;;;;4982197;28;24520;-63
2021/11/21 12:17:07;;;;;;;15.18;13.50;;;;;;;;;;4986567;28;25043;-64
2021/11/21 12:19:54;;;;;;;18.10;13.88;;;;;;;;;;4982071;28;24417;-64
2021/11/21 12:22:29;;;;;;;14.68;12.40;;;;;;;;;;4980524;28;25005;-67
2021/11/21 12:24:58;;;;;;;15.70;13.52;;;;;;;;;;4982620;28;24441;-66
2021/11/21 12:27:27;;;;;;;15.23;13.63;;;;;;;;;;4983597;28;24516;-66
2021/11/21 12:30:12;;;;;;;16.13;14.00;;;;;;;;;;4985827;28;24505;-66
2021/11/21 12:32:47;;;;;;;14.40;12.90;;;;;;;;;;4983280;28;25280;-66
2021/11/21 12:35:22;;;;;;;15.77;13.18;;;;;;;;;;4982268;28;24425;-66
2021/11/21 12:37:48;;;;;;;13.70;12.00;;;;;;;;;;4979691;28;24496;-67
2021/11/21 12:40:15;;;;;;;17.27;14.90;;;;;;;;;;4970461;28;24421;-67
2021/11/21 12:42:41;;;;;;;14.50;12.90;;;;;;;;;;4980138;28;24428;-67
2021/11/21 12:45:14;;;;;;;16.10;14.27;;;;;;;;;;4978929;28;24507;-67
2021/11/21 12:47:41;;;;;;;16.20;13.70;;;;;;;;;;4978410;28;24450;-67
2021/11/21 12:50:07;;;;;;;13.00;11.57;;;;;;;;;;4981681;28;24709;-66
2021/11/21 12:52:32;;;;;;;15.00;12.98;;;;;;;;;;4980712;28;24512;-67
2021/11/21 12:54:57;;;;;;;14.47;12.47;;;;;;;;;;4981127;28;24949;-67
2021/11/21 12:57:23;;;;;;;15.17;13.40;;;;;;;;;;4980818;28;24981;-67
2021/11/21 12:59:56;;;;;;;14.80;13.20;;;;;;;;;;4978801;28;24420;-67
2021/11/21 13:02:23;;;;;;;14.57;13.02;;;;;;;;;;4980410;28;24447;-67
2021/11/21 13:04:58;;;;;;;13.80;12.20;;;;;;;;;;4982862;28;24766;-67
2021/11/21 13:07:24;;;;;;;15.70;13.55;;;;;;;;;;4982036;28;24677;-66
2021/11/21 13:10:02;;;;;;;15.70;13.75;;;;;;;;;;4981619;28;24756;-66
2021/11/21 13:12:31;;;;;;;13.27;11.88;;;;;;;;;;4979573;28;25178;-66
2021/11/21 13:14:57;;;;;;;12.93;11.48;;;;;;;;;;4976978;28;24772;-66
2021/11/21 13:17:23;;;;;;;14.23;12.48;;;;;;;;;;4978300;28;24420;-65
2021/11/21 13:20:04;;;;;;;14.47;12.60;;;;;;;;;;4981785;28;24417;-66
2021/11/21 13:22:49;;;;;;;12.80;11.50;;;;;;;;;;4980398;28;24467;-66
2021/11/21 13:25:35;;;;;;;13.60;11.80;;;;;;;;;;4981551;28;24508;-66
2021/11/21 13:28:19;;;;;;;11.88;10.63;;;;;;;;;;4961162;28;24390;-66
2021/11/21 13:30:44;;;;;;;16.07;13.07;;;;;;;;;;4966534;28;24517;-66
2021/11/21 13:33:20;;;;;;;13.63;11.77;;;;;;;;;;4981522;28;24456;-66
2021/11/21 13:35:49;;;;;;;13.90;12.50;;;;;;;;;;4970298;28;24950;-66
2021/11/21 13:38:14;;;;;;;12.48;11.27;;;;;;;;;;4980541;28;24829;-66
2021/11/21 13:40:39;;;;;;;12.17;10.77;;;;;;;;;;4980689;28;24567;-66
2021/11/21 13:43:05;;;;;;;13.63;11.30;;;;;;;;;;4977875;28;24431;-66
2021/11/21 13:45:30;;;;;;;14.77;13.27;;;;;;;;;;4982627;28;24439;-66
2021/11/21 13:47:56;;;;;;;13.97;11.60;;;;;;;;;;4984447;28;24552;-66
2021/11/21 13:50:29;;;;;;;11.63;10.43;;;;;;;;;;4984293;28;24420;-67
2021/11/21 13:52:55;;;;;;;12.40;11.10;;;;;;;;;;4980299;28;24519;-65
2021/11/21 13:55:20;;;;;;;13.07;10.55;;;;;;;;;;4980130;28;24512;-66
2021/11/21 13:57:46;;;;;;;11.43;10.23;;;;;;;;;;4983950;28;24746;-66
2021/11/21 14:00:17;;;;;;;13.23;11.82;;;;;;;;;;4984133;28;25020;-66
2021/11/21 14:02:44;;;;;;;11.88;10.50;;;;;;;;;;4982374;28;24483;-66
2021/11/21 14:05:29;;;;;;;11.02;9.80;;;;;;;;;;4980015;28;24495;-67
2021/11/21 14:07:58;;;;;;;12.45;11.10;;;;;;;;;;4981272;28;24417;-67
2021/11/21 14:10:26;;;;;;;11.63;10.43;;;;;;;;;;4979977;28;24973;-66
2021/11/21 14:13:04;;;;;;;12.20;10.95;;;;;;;;;;4980571;28;24479;-66
2021/11/21 14:15:29;;;;;;;14.30;12.43;;;;;;;;;;4984037;28;24949;-66